sensor_id;sensor_type;location;lat;lon;timestamp;P1;durP1;ratioP1;P2;durP2;ratioP2
69185;SDS011;56298;49.246;9.410;2023-02-01T00:02:02;10.63;;;4.40;;
69185;SDS011;56298;49.246;9.410;2023-02-01T00:04:27;10.93;;;4.70;;
69185;SDS011;56298;49.246;9.410;2023-02-01T00:06:53;10.07;;;4.20;;
69185;SDS011;56298;49.246;9.410;2023-02-01T00:09:18;9.40;;;4.67;;
69185;SDS011;56298;49.246;9.410;2023-02-01T00:11:44;10.18;;;4.68;;
69185;SDS011;56298;49.246;9.410;2023-02-01T00:14:09;10.52;;;4.93;;
69185;SDS011;56298;49.246;9.410;2023-02-01T00:16:35;9.80;;;4.70;;
69185;SDS011;56298;49.246;9.410;2023-02-01T00:19:01;9.23;;;4.30;;
69185;SDS011;56298;49.246;9.410;2023-02-01T00:21:29;9.10;;;4.45;;
69185;SDS011;56298;49.246;9.410;2023-02-01T00:23:55;9.37;;;4.40;;
69185;SDS011;56298;49.246;9.410;2023-02-01T00:26:26;8.73;;;4.50;;
69185;SDS011;56298;49.246;9.410;2023-02-01T00:28:55;10.15;;;4.20;;
69185;SDS011;56298;49.246;9.410;2023-02-01T00:31:20;9.53;;;4.40;;
69185;SDS011;56298;49.246;9.410;2023-02-01T00:33:49;8.90;;;4.40;;
69185;SDS011;56298;49.246;9.410;2023-02-01T00:36:14;9.43;;;4.20;;
69185;SDS011;56298;49.246;9.410;2023-02-01T00:38:40;8.38;;;4.40;;
69185;SDS011;56298;49.246;9.410;2023-02-01T00:41:11;9.03;;;4.30;;
69185;SDS011;56298;49.246;9.410;2023-02-01T00:43:44;9.83;;;4.40;;
69185;SDS011;56298;49.246;9.410;2023-02-01T00:46:10;8.70;;;4.65;;
69185;SDS011;56298;49.246;9.410;2023-02-01T00:48:36;10.48;;;4.70;;
69185;SDS011;56298;49.246;9.410;2023-02-01T00:51:06;10.20;;;4.70;;
69185;SDS011;56298;49.246;9.410;2023-02-01T00:53:33;9.65;;;4.65;;
69185;SDS011;56298;49.246;9.410;2023-02-01T00:55:59;10.27;;;4.53;;
69185;SDS011;56298;49.246;9.410;2023-02-01T00:58:25;11.10;;;4.88;;
69185;SDS011;56298;49.246;9.410;2023-02-01T01:03:41;10.48;;;4.45;;
69185;SDS011;56298;49.246;9.410;2023-02-01T01:06:13;10.00;;;5.10;;
69185;SDS011;56298;49.246;9.410;2023-02-01T01:08:40;9.77;;;4.63;;
69185;SDS011;56298;49.246;9.410;2023-02-01T01:11:17;9.53;;;4.83;;
69185;SDS011;56298;49.246;9.410;2023-02-01T01:13:47;10.40;;;5.00;;
69185;SDS011;56298;49.246;9.410;2023-02-01T01:16:14;8.95;;;4.57;;
69185;SDS011;56298;49.246;9.410;2023-02-01T01:18:40;10.37;;;5.00;;
69185;SDS011;56298;49.246;9.410;2023-02-01T01:21:05;9.23;;;4.70;;
69185;SDS011;56298;49.246;9.410;2023-02-01T01:23:32;9.05;;;4.70;;
69185;SDS011;56298;49.246;9.410;2023-02-01T01:25:58;10.10;;;4.57;;
69185;SDS011;56298;49.246;9.410;2023-02-01T01:28:23;8.33;;;4.30;;
69185;SDS011;56298;49.246;9.410;2023-02-01T01:30:49;9.50;;;4.60;;
69185;SDS011;56298;49.246;9.410;2023-02-01T01:33:14;8.97;;;4.73;;
69185;SDS011;56298;49.246;9.410;2023-02-01T01:35:39;8.67;;;4.50;;
69185;SDS011;56298;49.246;9.410;2023-02-01T01:38:04;10.03;;;4.70;;
69185;SDS011;56298;49.246;9.410;2023-02-01T01:40:30;8.70;;;4.47;;
69185;SDS011;56298;49.246;9.410;2023-02-01T01:42:56;10.15;;;4.65;;
69185;SDS011;56298;49.246;9.410;2023-02-01T01:45:26;8.60;;;4.50;;
69185;SDS011;56298;49.246;9.410;2023-02-01T01:48:36;8.03;;;4.30;;
69185;SDS011;56298;49.246;9.410;2023-02-01T01:50:48;8.73;;;4.70;;
69185;SDS011;56298;49.246;9.410;2023-02-01T01:53:18;9.60;;;4.57;;
69185;SDS011;56298;49.246;9.410;2023-02-01T01:55:47;8.27;;;4.30;;
69185;SDS011;56298;49.246;9.410;2023-02-01T01:58:18;9.95;;;4.72;;
69185;SDS011;56298;49.246;9.410;2023-02-01T02:00:46;9.23;;;4.63;;
69185;SDS011;56298;49.246;9.410;2023-02-01T02:06:05;9.80;;;4.70;;
69185;SDS011;56298;49.246;9.410;2023-02-01T02:08:39;10.13;;;4.70;;
69185;SDS011;56298;49.246;9.410;2023-02-01T02:11:04;9.23;;;4.80;;
69185;SDS011;56298;49.246;9.410;2023-02-01T02:13:31;10.63;;;4.77;;
69185;SDS011;56298;49.246;9.410;2023-02-01T02:16:04;10.10;;;4.82;;
69185;SDS011;56298;49.246;9.410;2023-02-01T02:21:33;10.73;;;4.72;;
69185;SDS011;56298;49.246;9.410;2023-02-01T02:30:02;9.17;;;4.57;;
69185;SDS011;56298;49.246;9.410;2023-02-01T02:43:47;8.17;;;4.53;;
69185;SDS011;56298;49.246;9.410;2023-02-01T02:46:37;9.80;;;4.60;;
69185;SDS011;56298;49.246;9.410;2023-02-01T02:49:31;9.63;;;4.60;;
69185;SDS011;56298;49.246;9.410;2023-02-01T02:52:30;10.18;;;4.75;;
69185;SDS011;56298;49.246;9.410;2023-02-01T02:55:17;8.93;;;4.50;;
69185;SDS011;56298;49.246;9.410;2023-02-01T02:57:43;9.03;;;4.33;;
69185;SDS011;56298;49.246;9.410;2023-02-01T03:00:29;9.18;;;4.53;;
69185;SDS011;56298;49.246;9.410;2023-02-01T03:03:15;8.57;;;4.30;;
69185;SDS011;56298;49.246;9.410;2023-02-01T03:05:59;8.73;;;4.30;;
69185;SDS011;56298;49.246;9.410;2023-02-01T03:08:26;9.40;;;4.17;;
69185;SDS011;56298;49.246;9.410;2023-02-01T03:10:53;8.57;;;4.22;;
69185;SDS011;56298;49.246;9.410;2023-02-01T03:21:13;8.30;;;4.00;;
69185;SDS011;56298;49.246;9.410;2023-02-01T03:23:43;9.02;;;4.28;;
69185;SDS011;56298;49.246;9.410;2023-02-01T03:26:11;7.95;;;3.80;;
69185;SDS011;56298;49.246;9.410;2023-02-01T03:28:41;8.02;;;3.97;;
69185;SDS011;56298;49.246;9.410;2023-02-01T03:31:13;8.57;;;4.37;;
69185;SDS011;56298;49.246;9.410;2023-02-01T03:33:39;8.00;;;3.87;;
69185;SDS011;56298;49.246;9.410;2023-02-01T03:43:58;10.30;;;3.95;;
69185;SDS011;56298;49.246;9.410;2023-02-01T03:46:33;9.52;;;4.05;;
69185;SDS011;56298;49.246;9.410;2023-02-01T03:49:03;8.85;;;4.00;;
69185;SDS011;56298;49.246;9.410;2023-02-01T03:51:31;8.50;;;3.65;;
69185;SDS011;56298;49.246;9.410;2023-02-01T03:53:58;8.53;;;3.80;;
69185;SDS011;56298;49.246;9.410;2023-02-01T03:56:24;8.63;;;4.33;;
69185;SDS011;56298;49.246;9.410;2023-02-01T03:58:52;8.97;;;4.17;;
69185;SDS011;56298;49.246;9.410;2023-02-01T04:01:24;8.57;;;4.20;;
69185;SDS011;56298;49.246;9.410;2023-02-01T04:03:51;8.18;;;4.10;;
69185;SDS011;56298;49.246;9.410;2023-02-01T04:06:16;8.50;;;4.07;;
69185;SDS011;56298;49.246;9.410;2023-02-01T04:08:42;8.60;;;4.20;;
69185;SDS011;56298;49.246;9.410;2023-02-01T04:11:07;9.23;;;3.97;;
69185;SDS011;56298;49.246;9.410;2023-02-01T04:13:32;8.30;;;4.07;;
69185;SDS011;56298;49.246;9.410;2023-02-01T04:15:57;8.47;;;4.07;;
69185;SDS011;56298;49.246;9.410;2023-02-01T04:18:23;8.73;;;4.27;;
69185;SDS011;56298;49.246;9.410;2023-02-01T04:20:48;8.30;;;3.93;;
69185;SDS011;56298;49.246;9.410;2023-02-01T04:23:13;11.17;;;4.60;;
69185;SDS011;56298;49.246;9.410;2023-02-01T04:25:40;10.95;;;4.55;;
69185;SDS011;56298;49.246;9.410;2023-02-01T04:28:05;9.10;;;4.38;;
69185;SDS011;56298;49.246;9.410;2023-02-01T04:30:31;7.47;;;3.70;;
69185;SDS011;56298;49.246;9.410;2023-02-01T04:32:57;8.23;;;3.80;;
69185;SDS011;56298;49.246;9.410;2023-02-01T04:35:22;7.73;;;3.57;;
69185;SDS011;56298;49.246;9.410;2023-02-01T04:37:47;8.02;;;3.97;;
69185;SDS011;56298;49.246;9.410;2023-02-01T04:40:12;8.50;;;3.80;;
69185;SDS011;56298;49.246;9.410;2023-02-01T04:42:38;8.73;;;3.90;;
69185;SDS011;56298;49.246;9.410;2023-02-01T04:45:03;8.77;;;4.03;;
69185;SDS011;56298;49.246;9.410;2023-02-01T04:47:29;8.87;;;4.40;;
69185;SDS011;56298;49.246;9.410;2023-02-01T04:49:54;6.70;;;3.70;;
69185;SDS011;56298;49.246;9.410;2023-02-01T04:52:19;10.60;;;4.30;;
69185;SDS011;56298;49.246;9.410;2023-02-01T04:54:45;8.40;;;4.50;;
69185;SDS011;56298;49.246;9.410;2023-02-01T04:57:10;9.52;;;4.90;;
69185;SDS011;56298;49.246;9.410;2023-02-01T04:59:38;9.63;;;4.20;;
69185;SDS011;56298;49.246;9.410;2023-02-01T05:02:03;8.27;;;3.90;;
69185;SDS011;56298;49.246;9.410;2023-02-01T05:04:28;10.50;;;4.45;;
69185;SDS011;56298;49.246;9.410;2023-02-01T05:06:53;8.50;;;3.80;;
69185;SDS011;56298;49.246;9.410;2023-02-01T05:09:19;9.37;;;4.33;;
69185;SDS011;56298;49.246;9.410;2023-02-01T05:11:46;10.32;;;4.35;;
69185;SDS011;56298;49.246;9.410;2023-02-01T05:14:29;9.77;;;4.25;;
69185;SDS011;56298;49.246;9.410;2023-02-01T05:16:55;10.82;;;5.10;;
69185;SDS011;56298;49.246;9.410;2023-02-01T05:19:20;8.40;;;4.20;;
69185;SDS011;56298;49.246;9.410;2023-02-01T05:21:45;9.20;;;4.37;;
69185;SDS011;56298;49.246;9.410;2023-02-01T05:24:11;7.67;;;3.70;;
69185;SDS011;56298;49.246;9.410;2023-02-01T05:26:44;9.20;;;4.10;;
69185;SDS011;56298;49.246;9.410;2023-02-01T05:29:10;8.23;;;3.93;;
69185;SDS011;56298;49.246;9.410;2023-02-01T05:31:35;10.10;;;4.30;;
69185;SDS011;56298;49.246;9.410;2023-02-01T05:34:01;11.07;;;4.20;;
69185;SDS011;56298;49.246;9.410;2023-02-01T05:36:26;12.57;;;5.13;;
69185;SDS011;56298;49.246;9.410;2023-02-01T05:38:52;12.37;;;5.77;;
69185;SDS011;56298;49.246;9.410;2023-02-01T05:41:17;9.97;;;4.73;;
69185;SDS011;56298;49.246;9.410;2023-02-01T05:43:42;12.33;;;6.37;;
69185;SDS011;56298;49.246;9.410;2023-02-01T05:46:07;9.20;;;4.53;;
69185;SDS011;56298;49.246;9.410;2023-02-01T05:48:35;10.75;;;4.88;;
69185;SDS011;56298;49.246;9.410;2023-02-01T05:51:01;11.53;;;6.20;;
69185;SDS011;56298;49.246;9.410;2023-02-01T05:53:26;21.90;;;10.87;;
69185;SDS011;56298;49.246;9.410;2023-02-01T05:55:51;18.80;;;8.37;;
69185;SDS011;56298;49.246;9.410;2023-02-01T05:58:16;24.33;;;11.57;;
69185;SDS011;56298;49.246;9.410;2023-02-01T06:00:41;18.00;;;8.13;;
69185;SDS011;56298;49.246;9.410;2023-02-01T06:03:07;19.03;;;8.30;;
69185;SDS011;56298;49.246;9.410;2023-02-01T06:05:32;13.10;;;5.83;;
69185;SDS011;56298;49.246;9.410;2023-02-01T06:07:57;41.37;;;17.20;;
69185;SDS011;56298;49.246;9.410;2023-02-01T06:10:23;24.33;;;10.63;;
69185;SDS011;56298;49.246;9.410;2023-02-01T06:12:48;21.65;;;9.82;;
69185;SDS011;56298;49.246;9.410;2023-02-01T06:15:14;17.98;;;8.25;;
69185;SDS011;56298;49.246;9.410;2023-02-01T06:17:44;18.83;;;7.33;;
69185;SDS011;56298;49.246;9.410;2023-02-01T06:20:11;17.90;;;7.68;;
69185;SDS011;56298;49.246;9.410;2023-02-01T06:22:37;14.52;;;6.07;;
69185;SDS011;56298;49.246;9.410;2023-02-01T06:25:04;18.63;;;8.53;;
69185;SDS011;56298;49.246;9.410;2023-02-01T06:27:31;19.65;;;9.25;;
69185;SDS011;56298;49.246;9.410;2023-02-01T06:29:56;12.83;;;6.60;;
69185;SDS011;56298;49.246;9.410;2023-02-01T06:32:21;14.07;;;6.73;;
69185;SDS011;56298;49.246;9.410;2023-02-01T06:34:47;12.38;;;5.22;;
69185;SDS011;56298;49.246;9.410;2023-02-01T06:37:13;11.13;;;5.63;;
69185;SDS011;56298;49.246;9.410;2023-02-01T06:39:38;11.10;;;5.30;;
69185;SDS011;56298;49.246;9.410;2023-02-01T06:42:04;10.77;;;5.90;;
69185;SDS011;56298;49.246;9.410;2023-02-01T06:44:29;10.67;;;4.90;;
69185;SDS011;56298;49.246;9.410;2023-02-01T06:46:54;24.03;;;11.87;;
69185;SDS011;56298;49.246;9.410;2023-02-01T06:49:20;10.02;;;4.93;;
69185;SDS011;56298;49.246;9.410;2023-02-01T06:51:46;12.18;;;5.72;;
69185;SDS011;56298;49.246;9.410;2023-02-01T06:54:11;12.13;;;5.70;;
69185;SDS011;56298;49.246;9.410;2023-02-01T06:56:36;10.10;;;4.93;;
69185;SDS011;56298;49.246;9.410;2023-02-01T06:59:05;12.60;;;5.60;;
69185;SDS011;56298;49.246;9.410;2023-02-01T07:01:33;15.93;;;6.03;;
69185;SDS011;56298;49.246;9.410;2023-02-01T07:03:59;11.87;;;5.37;;
69185;SDS011;56298;49.246;9.410;2023-02-01T07:06:24;12.32;;;5.45;;
69185;SDS011;56298;49.246;9.410;2023-02-01T07:08:50;14.02;;;6.45;;
69185;SDS011;56298;49.246;9.410;2023-02-01T07:11:16;21.70;;;10.05;;
69185;SDS011;56298;49.246;9.410;2023-02-01T07:13:42;11.70;;;5.60;;
69185;SDS011;56298;49.246;9.410;2023-02-01T07:16:12;11.63;;;5.77;;
69185;SDS011;56298;49.246;9.410;2023-02-01T07:18:42;13.03;;;5.73;;
69185;SDS011;56298;49.246;9.410;2023-02-01T07:21:07;11.80;;;5.15;;
69185;SDS011;56298;49.246;9.410;2023-02-01T07:23:33;11.43;;;5.13;;
69185;SDS011;56298;49.246;9.410;2023-02-01T07:25:59;13.57;;;6.80;;
69185;SDS011;56298;49.246;9.410;2023-02-01T07:28:28;10.50;;;5.15;;
69185;SDS011;56298;49.246;9.410;2023-02-01T07:30:54;10.82;;;5.57;;
69185;SDS011;56298;49.246;9.410;2023-02-01T07:33:20;11.77;;;5.23;;
69185;SDS011;56298;49.246;9.410;2023-02-01T07:35:47;11.57;;;5.28;;
69185;SDS011;56298;49.246;9.410;2023-02-01T07:38:13;9.93;;;4.90;;
69185;SDS011;56298;49.246;9.410;2023-02-01T07:40:39;11.13;;;4.90;;
69185;SDS011;56298;49.246;9.410;2023-02-01T07:43:04;10.95;;;5.25;;
69185;SDS011;56298;49.246;9.410;2023-02-01T07:45:31;10.05;;;4.47;;
69185;SDS011;56298;49.246;9.410;2023-02-01T07:47:56;10.23;;;5.07;;
69185;SDS011;56298;49.246;9.410;2023-02-01T07:50:22;9.80;;;4.80;;
69185;SDS011;56298;49.246;9.410;2023-02-01T07:52:47;12.20;;;5.27;;
69185;SDS011;56298;49.246;9.410;2023-02-01T07:55:12;11.47;;;5.07;;
69185;SDS011;56298;49.246;9.410;2023-02-01T07:57:38;10.10;;;4.33;;
69185;SDS011;56298;49.246;9.410;2023-02-01T08:00:03;11.20;;;4.70;;
69185;SDS011;56298;49.246;9.410;2023-02-01T08:02:47;11.63;;;4.93;;
69185;SDS011;56298;49.246;9.410;2023-02-01T08:05:12;11.00;;;4.33;;
69185;SDS011;56298;49.246;9.410;2023-02-01T08:07:38;9.57;;;3.77;;
69185;SDS011;56298;49.246;9.410;2023-02-01T08:10:03;10.30;;;3.70;;
69185;SDS011;56298;49.246;9.410;2023-02-01T08:12:30;9.00;;;3.53;;
69185;SDS011;56298;49.246;9.410;2023-02-01T08:14:55;10.10;;;3.65;;
69185;SDS011;56298;49.246;9.410;2023-02-01T08:17:21;8.93;;;3.75;;
69185;SDS011;56298;49.246;9.410;2023-02-01T08:19:46;8.43;;;3.90;;
69185;SDS011;56298;49.246;9.410;2023-02-01T08:22:11;9.03;;;3.90;;
69185;SDS011;56298;49.246;9.410;2023-02-01T08:24:37;9.70;;;4.10;;
69185;SDS011;56298;49.246;9.410;2023-02-01T08:27:05;10.23;;;4.03;;
69185;SDS011;56298;49.246;9.410;2023-02-01T08:29:31;10.63;;;4.33;;
69185;SDS011;56298;49.246;9.410;2023-02-01T08:31:56;12.70;;;4.20;;
69185;SDS011;56298;49.246;9.410;2023-02-01T08:34:21;10.30;;;4.60;;
69185;SDS011;56298;49.246;9.410;2023-02-01T08:36:47;10.83;;;4.67;;
69185;SDS011;56298;49.246;9.410;2023-02-01T08:39:12;9.63;;;4.68;;
69185;SDS011;56298;49.246;9.410;2023-02-01T08:41:37;11.70;;;4.90;;
69185;SDS011;56298;49.246;9.410;2023-02-01T08:44:03;12.23;;;4.90;;
69185;SDS011;56298;49.246;9.410;2023-02-01T08:46:28;11.10;;;4.80;;
69185;SDS011;56298;49.246;9.410;2023-02-01T08:48:54;10.90;;;4.88;;
69185;SDS011;56298;49.246;9.410;2023-02-01T08:51:19;11.53;;;5.00;;
69185;SDS011;56298;49.246;9.410;2023-02-01T08:53:46;8.90;;;4.95;;
69185;SDS011;56298;49.246;9.410;2023-02-01T08:56:13;11.80;;;5.23;;
69185;SDS011;56298;49.246;9.410;2023-02-01T08:58:39;11.05;;;5.00;;
69185;SDS011;56298;49.246;9.410;2023-02-01T09:01:05;12.30;;;4.70;;
69185;SDS011;56298;49.246;9.410;2023-02-01T09:03:32;11.25;;;4.82;;
69185;SDS011;56298;49.246;9.410;2023-02-01T09:06:01;10.17;;;4.93;;
69185;SDS011;56298;49.246;9.410;2023-02-01T09:08:27;14.70;;;5.43;;
69185;SDS011;56298;49.246;9.410;2023-02-01T09:10:52;12.00;;;4.70;;
69185;SDS011;56298;49.246;9.410;2023-02-01T09:13:17;12.17;;;4.90;;
69185;SDS011;56298;49.246;9.410;2023-02-01T09:15:43;11.73;;;5.13;;
69185;SDS011;56298;49.246;9.410;2023-02-01T09:18:08;12.83;;;5.17;;
69185;SDS011;56298;49.246;9.410;2023-02-01T09:20:34;13.10;;;4.87;;
69185;SDS011;56298;49.246;9.410;2023-02-01T09:22:59;12.63;;;5.00;;
69185;SDS011;56298;49.246;9.410;2023-02-01T09:25:25;12.65;;;5.03;;
69185;SDS011;56298;49.246;9.410;2023-02-01T09:27:50;12.80;;;5.23;;
69185;SDS011;56298;49.246;9.410;2023-02-01T09:30:16;13.20;;;5.60;;
69185;SDS011;56298;49.246;9.410;2023-02-01T09:32:41;13.57;;;4.90;;
69185;SDS011;56298;49.246;9.410;2023-02-01T09:35:06;13.73;;;4.70;;
69185;SDS011;56298;49.246;9.410;2023-02-01T09:37:32;14.30;;;4.70;;
69185;SDS011;56298;49.246;9.410;2023-02-01T09:39:57;12.37;;;5.00;;
69185;SDS011;56298;49.246;9.410;2023-02-01T09:45:44;19.77;;;9.60;;
69185;SDS011;56298;49.246;9.410;2023-02-01T09:48:21;20.00;;;7.82;;
69185;SDS011;56298;49.246;9.410;2023-02-01T09:50:55;11.52;;;4.30;;
69185;SDS011;56298;49.246;9.410;2023-02-01T09:53:29;12.38;;;4.93;;
69185;SDS011;56298;49.246;9.410;2023-02-01T09:56:04;11.27;;;4.00;;
69185;SDS011;56298;49.246;9.410;2023-02-01T09:58:39;15.50;;;6.37;;
69185;SDS011;56298;49.246;9.410;2023-02-01T10:01:22;17.33;;;7.13;;
69185;SDS011;56298;49.246;9.410;2023-02-01T10:03:49;15.60;;;7.53;;
69185;SDS011;56298;49.246;9.410;2023-02-01T10:12:04;15.03;;;6.00;;
69185;SDS011;56298;49.246;9.410;2023-02-01T10:17:47;14.65;;;5.30;;
69185;SDS011;56298;49.246;9.410;2023-02-01T10:20:23;16.45;;;5.68;;
69185;SDS011;56298;49.246;9.410;2023-02-01T10:23:30;17.75;;;5.90;;
69185;SDS011;56298;49.246;9.410;2023-02-01T10:28:41;18.50;;;6.63;;
69185;SDS011;56298;49.246;9.410;2023-02-01T10:31:10;17.88;;;6.22;;
69185;SDS011;56298;49.246;9.410;2023-02-01T10:38:38;14.98;;;4.38;;
69185;SDS011;56298;49.246;9.410;2023-02-01T10:41:04;17.43;;;5.73;;
69185;SDS011;56298;49.246;9.410;2023-02-01T10:43:37;18.23;;;6.33;;
69185;SDS011;56298;49.246;9.410;2023-02-01T10:46:04;15.50;;;4.90;;
69185;SDS011;56298;49.246;9.410;2023-02-01T10:48:29;17.13;;;5.40;;
69185;SDS011;56298;49.246;9.410;2023-02-01T10:51:05;18.48;;;7.45;;
69185;SDS011;56298;49.246;9.410;2023-02-01T10:53:38;16.33;;;5.57;;
69185;SDS011;56298;49.246;9.410;2023-02-01T10:56:09;16.50;;;7.10;;
69185;SDS011;56298;49.246;9.410;2023-02-01T10:58:36;21.02;;;8.07;;
69185;SDS011;56298;49.246;9.410;2023-02-01T11:01:09;15.25;;;5.10;;
69185;SDS011;56298;49.246;9.410;2023-02-01T11:03:53;21.95;;;10.35;;
69185;SDS011;56298;49.246;9.410;2023-02-01T11:06:28;15.55;;;6.18;;
69185;SDS011;56298;49.246;9.410;2023-02-01T11:11:32;14.27;;;5.47;;
69185;SDS011;56298;49.246;9.410;2023-02-01T11:14:14;17.15;;;4.93;;
69185;SDS011;56298;49.246;9.410;2023-02-01T11:16:47;20.67;;;6.60;;
69185;SDS011;56298;49.246;9.410;2023-02-01T11:19:15;12.18;;;4.47;;
69185;SDS011;56298;49.246;9.410;2023-02-01T11:21:42;17.92;;;5.78;;
69185;SDS011;56298;49.246;9.410;2023-02-01T11:24:33;19.85;;;6.03;;
69185;SDS011;56298;49.246;9.410;2023-02-01T11:27:01;19.75;;;6.15;;
69185;SDS011;56298;49.246;9.410;2023-02-01T11:29:29;14.33;;;4.93;;
69185;SDS011;56298;49.246;9.410;2023-02-01T11:32:00;14.65;;;4.03;;
69185;SDS011;56298;49.246;9.410;2023-02-01T11:34:30;15.07;;;3.30;;
69185;SDS011;56298;49.246;9.410;2023-02-01T11:37:13;13.40;;;3.50;;
69185;SDS011;56298;49.246;9.410;2023-02-01T11:39:40;14.50;;;3.60;;
69185;SDS011;56298;49.246;9.410;2023-02-01T11:44:45;12.18;;;3.25;;
69185;SDS011;56298;49.246;9.410;2023-02-01T11:47:28;16.00;;;4.23;;
69185;SDS011;56298;49.246;9.410;2023-02-01T11:50:03;18.90;;;4.20;;
69185;SDS011;56298;49.246;9.410;2023-02-01T11:58:22;16.40;;;4.35;;
69185;SDS011;56298;49.246;9.410;2023-02-01T12:07:11;14.75;;;3.95;;
69185;SDS011;56298;49.246;9.410;2023-02-01T12:10:00;16.38;;;4.43;;
69185;SDS011;56298;49.246;9.410;2023-02-01T12:12:45;17.42;;;4.40;;
69185;SDS011;56298;49.246;9.410;2023-02-01T12:16:23;14.10;;;3.90;;
69185;SDS011;56298;49.246;9.410;2023-02-01T12:40:37;16.40;;;3.60;;
69185;SDS011;56298;49.246;9.410;2023-02-01T12:43:15;12.43;;;2.93;;
69185;SDS011;56298;49.246;9.410;2023-02-01T12:45:57;15.43;;;3.13;;
69185;SDS011;56298;49.246;9.410;2023-02-01T12:51:01;12.63;;;3.53;;
69185;SDS011;56298;49.246;9.410;2023-02-01T12:53:46;13.23;;;3.28;;
69185;SDS011;56298;49.246;9.410;2023-02-01T12:56:21;14.40;;;3.70;;
69185;SDS011;56298;49.246;9.410;2023-02-01T12:58:53;14.67;;;3.97;;
69185;SDS011;56298;49.246;9.410;2023-02-01T13:01:35;12.57;;;2.90;;
69185;SDS011;56298;49.246;9.410;2023-02-01T13:04:10;12.48;;;3.40;;
69185;SDS011;56298;49.246;9.410;2023-02-01T13:06:43;15.33;;;3.67;;
69185;SDS011;56298;49.246;9.410;2023-02-01T13:12:04;18.35;;;6.95;;
69185;SDS011;56298;49.246;9.410;2023-02-01T13:14:48;27.05;;;8.55;;
69185;SDS011;56298;49.246;9.410;2023-02-01T13:17:22;26.17;;;7.63;;
69185;SDS011;56298;49.246;9.410;2023-02-01T13:20:02;23.40;;;7.68;;
69185;SDS011;56298;49.246;9.410;2023-02-01T13:22:39;30.98;;;9.32;;
69185;SDS011;56298;49.246;9.410;2023-02-01T13:25:12;38.63;;;11.52;;
69185;SDS011;56298;49.246;9.410;2023-02-01T13:27:41;36.78;;;11.02;;
69185;SDS011;56298;49.246;9.410;2023-02-01T13:36:03;38.45;;;14.32;;
69185;SDS011;56298;49.246;9.410;2023-02-01T13:41:35;66.93;;;25.77;;
69185;SDS011;56298;49.246;9.410;2023-02-01T13:44:05;26.70;;;9.20;;
69185;SDS011;56298;49.246;9.410;2023-02-01T13:46:43;32.80;;;11.18;;
69185;SDS011;56298;49.246;9.410;2023-02-01T13:49:20;40.10;;;12.75;;
69185;SDS011;56298;49.246;9.410;2023-02-01T13:51:49;27.00;;;8.80;;
69185;SDS011;56298;49.246;9.410;2023-02-01T13:54:33;43.80;;;14.82;;
69185;SDS011;56298;49.246;9.410;2023-02-01T13:57:02;40.13;;;13.55;;
69185;SDS011;56298;49.246;9.410;2023-02-01T14:05:01;23.80;;;7.80;;
69185;SDS011;56298;49.246;9.410;2023-02-01T14:07:26;27.80;;;9.57;;
69185;SDS011;56298;49.246;9.410;2023-02-01T14:09:51;19.83;;;5.30;;
69185;SDS011;56298;49.246;9.410;2023-02-01T14:15:35;25.20;;;9.20;;
69185;SDS011;56298;49.246;9.410;2023-02-01T14:17:58;18.27;;;5.43;;
69185;SDS011;56298;49.246;9.410;2023-02-01T14:23:10;22.27;;;7.10;;
69185;SDS011;56298;49.246;9.410;2023-02-01T14:25:38;20.15;;;6.47;;
69185;SDS011;56298;49.246;9.410;2023-02-01T14:28:10;15.55;;;4.47;;
69185;SDS011;56298;49.246;9.410;2023-02-01T14:30:48;21.07;;;6.20;;
69185;SDS011;56298;49.246;9.410;2023-02-01T14:33:21;11.35;;;2.90;;
69185;SDS011;56298;49.246;9.410;2023-02-01T14:36:07;15.85;;;3.20;;
69185;SDS011;56298;49.246;9.410;2023-02-01T14:38:37;17.10;;;4.90;;
69185;SDS011;56298;49.246;9.410;2023-02-01T14:41:17;16.80;;;3.70;;
69185;SDS011;56298;49.246;9.410;2023-02-01T14:49:32;13.98;;;3.60;;
69185;SDS011;56298;49.246;9.410;2023-02-01T14:51:59;19.58;;;6.25;;
69185;SDS011;56298;49.246;9.410;2023-02-01T14:54:29;19.10;;;5.18;;
69185;SDS011;56298;49.246;9.410;2023-02-01T14:56:55;27.17;;;10.10;;
69185;SDS011;56298;49.246;9.410;2023-02-01T14:59:22;18.02;;;5.13;;
69185;SDS011;56298;49.246;9.410;2023-02-01T15:01:50;19.00;;;6.22;;
69185;SDS011;56298;49.246;9.410;2023-02-01T15:04:19;21.63;;;5.65;;
69185;SDS011;56298;49.246;9.410;2023-02-01T15:06:50;29.63;;;10.18;;
69185;SDS011;56298;49.246;9.410;2023-02-01T15:09:39;26.77;;;9.63;;
69185;SDS011;56298;49.246;9.410;2023-02-01T15:14:38;33.10;;;13.15;;
69185;SDS011;56298;49.246;9.410;2023-02-01T15:17:27;37.13;;;13.90;;
69185;SDS011;56298;49.246;9.410;2023-02-01T15:20:21;37.88;;;16.15;;
69185;SDS011;56298;49.246;9.410;2023-02-01T15:22:52;60.15;;;23.90;;
69185;SDS011;56298;49.246;9.410;2023-02-01T15:25:21;30.38;;;11.15;;
69185;SDS011;56298;49.246;9.410;2023-02-01T15:27:54;25.42;;;7.90;;
69185;SDS011;56298;49.246;9.410;2023-02-01T15:30:21;31.77;;;12.95;;
69185;SDS011;56298;49.246;9.410;2023-02-01T15:33:07;34.05;;;16.10;;
69185;SDS011;56298;49.246;9.410;2023-02-01T15:40:56;23.20;;;8.30;;
69185;SDS011;56298;49.246;9.410;2023-02-01T15:43:34;29.13;;;11.33;;
69185;SDS011;56298;49.246;9.410;2023-02-01T15:46:03;42.95;;;15.68;;
69185;SDS011;56298;49.246;9.410;2023-02-01T15:48:38;27.35;;;10.32;;
69185;SDS011;56298;49.246;9.410;2023-02-01T15:51:11;29.75;;;9.75;;
69185;SDS011;56298;49.246;9.410;2023-02-01T15:53:38;20.92;;;7.57;;
69185;SDS011;56298;49.246;9.410;2023-02-01T15:56:10;20.73;;;7.25;;
69185;SDS011;56298;49.246;9.410;2023-02-01T15:58:35;21.67;;;8.63;;
69185;SDS011;56298;49.246;9.410;2023-02-01T16:01:02;15.60;;;4.32;;
69185;SDS011;56298;49.246;9.410;2023-02-01T16:03:39;18.40;;;4.13;;
69185;SDS011;56298;49.246;9.410;2023-02-01T16:06:08;17.63;;;3.85;;
69185;SDS011;56298;49.246;9.410;2023-02-01T16:08:55;15.35;;;4.05;;
69185;SDS011;56298;49.246;9.410;2023-02-01T16:11:29;12.52;;;3.63;;
69185;SDS011;56298;49.246;9.410;2023-02-01T16:13:57;19.47;;;4.53;;
69185;SDS011;56298;49.246;9.410;2023-02-01T16:16:23;18.10;;;4.40;;
69185;SDS011;56298;49.246;9.410;2023-02-01T16:18:49;16.10;;;3.78;;
69185;SDS011;56298;49.246;9.410;2023-02-01T16:21:15;17.00;;;3.97;;
69185;SDS011;56298;49.246;9.410;2023-02-01T16:23:40;15.53;;;4.37;;
69185;SDS011;56298;49.246;9.410;2023-02-01T16:26:05;11.10;;;3.43;;
69185;SDS011;56298;49.246;9.410;2023-02-01T16:28:31;15.03;;;4.00;;
69185;SDS011;56298;49.246;9.410;2023-02-01T16:30:57;15.10;;;4.22;;
69185;SDS011;56298;49.246;9.410;2023-02-01T16:33:23;15.67;;;4.50;;
69185;SDS011;56298;49.246;9.410;2023-02-01T16:35:48;11.93;;;3.70;;
69185;SDS011;56298;49.246;9.410;2023-02-01T16:38:16;14.13;;;3.13;;
69185;SDS011;56298;49.246;9.410;2023-02-01T16:40:44;14.70;;;3.83;;
69185;SDS011;56298;49.246;9.410;2023-02-01T16:43:18;16.40;;;3.60;;
69185;SDS011;56298;49.246;9.410;2023-02-01T16:45:45;12.48;;;2.80;;
69185;SDS011;56298;49.246;9.410;2023-02-01T16:48:16;15.93;;;3.53;;
69185;SDS011;56298;49.246;9.410;2023-02-01T16:50:45;14.25;;;3.20;;
69185;SDS011;56298;49.246;9.410;2023-02-01T16:53:12;17.38;;;4.00;;
69185;SDS011;56298;49.246;9.410;2023-02-01T16:55:41;18.45;;;5.80;;
69185;SDS011;56298;49.246;9.410;2023-02-01T16:58:08;28.92;;;10.85;;
69185;SDS011;56298;49.246;9.410;2023-02-01T17:00:33;29.23;;;14.13;;
69185;SDS011;56298;49.246;9.410;2023-02-01T17:03:01;19.42;;;8.30;;
69185;SDS011;56298;49.246;9.410;2023-02-01T17:05:26;18.13;;;4.40;;
69185;SDS011;56298;49.246;9.410;2023-02-01T17:07:53;17.38;;;6.28;;
69185;SDS011;56298;49.246;9.410;2023-02-01T17:10:22;18.97;;;5.07;;
69185;SDS011;56298;49.246;9.410;2023-02-01T17:12:50;20.55;;;6.75;;